createdAt,value
2022-10-02T00:00:14.634Z,66.86
2022-10-02T00:03:17.625Z,66.79
2022-10-02T00:06:14.904Z,67.05
2022-10-02T00:09:03.582Z,66.90
2022-10-02T00:11:52.297Z,66.77
2022-10-02T00:14:42.262Z,66.87
2022-10-02T00:17:33.376Z,66.95
2022-10-02T00:20:25.128Z,66.77
2022-10-02T00:23:10.538Z,66.58
2022-10-02T00:26:23.729Z,66.70
2022-10-02T00:29:25.667Z,66.80
2022-10-02T00:32:29.848Z,66.64
2022-10-02T00:35:34.896Z,66.62
2022-10-02T00:38:45.290Z,66.57
2022-10-02T00:41:36.635Z,66.69
2022-10-02T00:44:40.918Z,66.63
2022-10-02T00:47:31.877Z,66.66
2022-10-02T00:50:42.217Z,66.42
2022-10-02T00:54:05.066Z,66.56
2022-10-02T00:56:58.760Z,66.48
2022-10-02T01:00:02.603Z,66.56
2022-10-02T01:03:18.350Z,66.46
2022-10-02T01:06:03.744Z,66.44
2022-10-02T01:08:49.569Z,66.47
2022-10-02T01:11:36.865Z,66.20
2022-10-02T01:14:32.743Z,66.53
2022-10-02T01:17:31.645Z,66.62
2022-10-02T01:20:30.053Z,66.39
2022-10-02T01:23:21.609Z,66.47
2022-10-02T01:26:07.216Z,66.59
2022-10-02T01:28:52.956Z,66.49
2022-10-02T01:31:38.431Z,66.25
2022-10-02T01:34:24.160Z,66.26
2022-10-02T01:37:09.832Z,66.41
2022-10-02T01:40:00.192Z,66.28
2022-10-02T01:42:45.538Z,66.40
2022-10-02T01:45:58.977Z,66.29
2022-10-02T01:49:05.834Z,66.49
2022-10-02T01:52:21.153Z,66.76
2022-10-02T01:55:25.757Z,66.28
2022-10-02T01:58:36.354Z,66.50
2022-10-02T02:01:25.221Z,66.45
2022-10-02T02:04:13.592Z,66.46
2022-10-02T02:07:25.940Z,66.49
2022-10-02T02:10:34.295Z,66.31
2022-10-02T02:13:31.007Z,66.43
2022-10-02T02:16:41.216Z,66.37
2022-10-02T02:19:56.781Z,66.46
2022-10-02T02:22:49.226Z,66.40
2022-10-02T02:25:39.885Z,66.30
2022-10-02T02:28:29.616Z,66.37
2022-10-02T02:31:19.904Z,66.41
2022-10-02T02:34:13.449Z,66.33
2022-10-02T02:37:05.991Z,66.25
2022-10-02T02:39:56.250Z,66.41
2022-10-02T02:42:53.763Z,66.42
2022-10-02T02:45:50.847Z,66.33
2022-10-02T02:48:45.371Z,66.38
2022-10-02T02:51:36.556Z,66.17
2022-10-02T02:54:28.980Z,66.40
2022-10-02T02:57:17.063Z,66.47
2022-10-02T03:00:04.968Z,66.40
2022-10-02T03:02:54.422Z,66.22
2022-10-02T03:05:44.525Z,66.51
2022-10-02T03:08:37.538Z,66.59
2022-10-02T03:11:46.181Z,66.38
2022-10-02T03:14:47.117Z,66.49
2022-10-02T03:17:32.160Z,67.08
2022-10-02T03:20:43.723Z,66.67
2022-10-02T03:23:45.524Z,67.05
2022-10-02T03:26:41.130Z,66.66
2022-10-02T03:29:40.636Z,67.61
2022-10-02T03:32:27.915Z,67.07
2022-10-02T03:35:15.137Z,66.81
2022-10-02T03:38:06.752Z,66.88
2022-10-02T03:40:58.021Z,66.67
2022-10-02T03:43:43.419Z,66.95
2022-10-02T03:46:28.736Z,66.80
2022-10-02T03:49:14.139Z,66.84
2022-10-02T03:51:59.541Z,66.82
2022-10-02T03:54:45.336Z,66.79
2022-10-02T03:57:33.907Z,66.85
2022-10-02T04:00:26.405Z,66.76
2022-10-02T04:03:19.769Z,66.84
2022-10-02T04:06:56.995Z,66.71
2022-10-02T04:09:45.077Z,66.76
2022-10-02T04:12:34.761Z,66.59
2022-10-02T04:15:28.787Z,66.70
2022-10-02T04:18:25.074Z,67.04
2022-10-02T04:21:19.742Z,66.87
2022-10-02T04:24:16.182Z,66.72
2022-10-02T04:27:21.626Z,66.85
2022-10-02T04:30:13.135Z,66.68
2022-10-02T04:33:11.011Z,66.74
2022-10-02T04:36:07.995Z,66.78
2022-10-02T04:39:07.367Z,66.97
2022-10-02T04:42:15.110Z,66.82
2022-10-02T04:45:16.448Z,66.79
2022-10-02T04:48:01.927Z,66.65
2022-10-02T04:51:18.124Z,66.97
2022-10-02T04:54:15.778Z,66.67
2022-10-02T04:57:27.537Z,66.82
2022-10-02T05:00:18.423Z,66.95
2022-10-02T05:03:13.007Z,66.87
2022-10-02T05:06:23.071Z,66.85
2022-10-02T05:09:32.695Z,66.90
2022-10-02T05:12:45.865Z,66.83
2022-10-02T05:15:59.298Z,66.91
2022-10-02T05:19:19.001Z,66.96
2022-10-02T05:22:16.449Z,67.00
2022-10-02T05:25:19.749Z,66.94
2022-10-02T05:28:30.600Z,66.98
2022-10-02T05:31:40.592Z,67.00
2022-10-02T05:34:47.286Z,66.89
2022-10-02T05:37:38.786Z,67.17
2022-10-02T05:40:31.555Z,67.03
2022-10-02T05:43:47.384Z,67.35
2022-10-02T05:46:43.930Z,67.29
2022-10-02T05:49:41.837Z,67.34
2022-10-02T05:52:35.180Z,67.33
2022-10-02T05:55:37.106Z,67.53
2022-10-02T05:59:18.812Z,67.33
2022-10-02T06:02:28.067Z,67.44
2022-10-02T06:05:35.385Z,67.53
2022-10-02T06:09:18.944Z,67.53
2022-10-02T06:12:17.172Z,67.78
2022-10-02T06:15:33.322Z,68.10
2022-10-02T06:18:24.049Z,68.33
2022-10-02T06:21:36.293Z,68.41
2022-10-02T06:24:34.456Z,68.02
2022-10-02T06:27:41.447Z,67.98
2022-10-02T06:30:30.087Z,67.75
2022-10-02T06:33:19.114Z,67.66
2022-10-02T06:36:04.734Z,67.85
2022-10-02T06:39:27.729Z,67.70
2022-10-02T06:42:22.274Z,67.68
2022-10-02T06:45:24.713Z,67.71
2022-10-02T06:48:40.995Z,67.68
2022-10-02T06:51:45.247Z,67.95
2022-10-02T06:55:19.641Z,67.75
2022-10-02T06:58:11.144Z,67.63
2022-10-02T07:01:25.225Z,67.88
2022-10-02T07:04:42.838Z,67.56
2022-10-02T07:07:34.778Z,67.62
2022-10-02T07:10:38.257Z,67.50
2022-10-02T07:13:53.550Z,67.80
2022-10-02T07:17:01.851Z,68.13
2022-10-02T07:20:29.837Z,67.26
2022-10-02T07:23:51.126Z,67.35
2022-10-02T07:27:21.574Z,67.57
2022-10-02T07:30:17.683Z,67.51
2022-10-02T07:33:06.145Z,67.15
2022-10-02T07:36:29.065Z,67.40
2022-10-02T07:39:26.657Z,67.29
2022-10-02T07:42:23.663Z,67.43
2022-10-02T07:45:34.394Z,67.21
2022-10-02T07:48:47.263Z,67.37
2022-10-02T07:51:50.391Z,67.39
2022-10-02T07:54:40.126Z,67.12
2022-10-02T07:57:56.462Z,67.05
2022-10-02T08:00:49.076Z,67.00
2022-10-02T08:04:07.263Z,67.31
2022-10-02T08:06:58.728Z,67.20
2022-10-02T08:09:49.264Z,67.14
2022-10-02T08:12:47.910Z,67.20
2022-10-02T08:15:38.599Z,67.00
2022-10-02T08:18:36.252Z,67.58
2022-10-02T08:21:24.486Z,67.62
2022-10-02T08:24:17.895Z,67.69
2022-10-02T08:27:11.258Z,67.57
2022-10-02T08:30:04.291Z,67.24
2022-10-02T08:32:50.060Z,67.11
2022-10-02T08:36:24.370Z,66.95
2022-10-02T08:39:21.985Z,66.75
2022-10-02T08:42:28.611Z,66.60
2022-10-02T08:45:36.002Z,66.55
2022-10-02T08:48:49.684Z,66.58
2022-10-02T08:52:02.710Z,66.40
2022-10-02T08:55:07.175Z,66.41
2022-10-02T08:57:58.970Z,66.34
2022-10-02T09:01:03.907Z,66.79
2022-10-02T09:04:09.217Z,67.29
2022-10-02T09:07:33.796Z,67.83
2022-10-02T09:10:50.841Z,67.53
2022-10-02T09:13:43.664Z,67.68
2022-10-02T09:17:06.332Z,67.31
2022-10-02T09:20:11.364Z,67.31
2022-10-02T09:23:21.912Z,67.62
2022-10-02T09:26:25.597Z,67.33
2022-10-02T09:29:42.271Z,67.40
2022-10-02T09:33:00.867Z,67.41
2022-10-02T09:36:14.568Z,67.30
2022-10-02T09:39:30.255Z,67.06
2022-10-02T09:42:54.170Z,67.60
2022-10-02T09:46:10.838Z,67.74
2022-10-02T09:49:32.133Z,68.28
2022-10-02T09:52:55.000Z,67.98
2022-10-02T09:55:52.709Z,67.82
2022-10-02T09:59:17.635Z,67.53
2022-10-02T10:02:25.823Z,64.96
2022-10-02T10:05:43.802Z,65.42
2022-10-02T10:08:44.071Z,64.90
2022-10-02T10:11:32.460Z,65.09
2022-10-02T10:14:33.903Z,65.63
2022-10-02T10:17:48.396Z,66.24
2022-10-02T10:21:11.518Z,66.42
2022-10-02T10:24:13.340Z,66.26
2022-10-02T10:27:17.182Z,66.57
2022-10-02T10:30:21.447Z,66.43
2022-10-02T10:33:34.870Z,66.36
2022-10-02T10:37:07.851Z,66.01
2022-10-02T10:40:17.099Z,66.64
2022-10-02T10:43:13.287Z,66.67
2022-10-02T10:46:07.414Z,66.47
2022-10-02T10:49:18.410Z,66.12
2022-10-02T10:52:28.602Z,66.27
2022-10-02T10:55:36.222Z,67.42
2022-10-02T10:58:31.993Z,66.23
2022-10-02T11:01:23.875Z,66.01
2022-10-02T11:07:42.587Z,66.62
2022-10-02T11:10:45.533Z,66.32
2022-10-02T11:13:44.161Z,66.20
2022-10-02T11:16:49.354Z,66.11
2022-10-02T11:19:44.145Z,66.43
2022-10-02T11:22:55.023Z,66.62
2022-10-02T11:26:21.515Z,66.49
2022-10-02T11:29:34.787Z,66.56
2022-10-02T11:32:21.173Z,64.35
2022-10-02T11:35:19.362Z,65.21
2022-10-02T11:38:07.936Z,65.34
2022-10-02T11:41:20.961Z,65.57
2022-10-02T11:44:37.664Z,66.02
2022-10-02T11:47:38.253Z,66.12
2022-10-02T11:50:30.751Z,66.14
2022-10-02T11:53:35.634Z,66.08
2022-10-02T11:56:39.616Z,66.00
2022-10-02T11:59:34.300Z,66.92
2022-10-02T12:02:35.019Z,67.19
2022-10-02T12:05:54.973Z,67.29
2022-10-02T12:09:06.432Z,67.54
2022-10-02T12:12:22.504Z,67.73
2022-10-02T12:15:28.220Z,67.49
2022-10-02T12:18:32.861Z,67.32
2022-10-02T12:22:00.213Z,67.92
2022-10-02T12:25:28.215Z,67.16
2022-10-02T12:28:32.373Z,67.29
2022-10-02T12:31:32.277Z,66.95
2022-10-02T12:34:55.544Z,67.10
2022-10-02T12:38:19.794Z,67.08
2022-10-02T12:41:25.526Z,66.60
2022-10-02T12:44:25.299Z,66.74
2022-10-02T12:47:29.268Z,66.54
2022-10-02T12:50:40.045Z,66.42
2022-10-02T12:53:49.899Z,65.78
2022-10-02T12:56:41.694Z,65.32
2022-10-02T13:00:01.614Z,65.34
2022-10-02T13:03:09.087Z,65.12
2022-10-02T13:06:30.108Z,64.90
2022-10-02T13:09:30.876Z,64.71
2022-10-02T13:12:24.788Z,65.00
2022-10-02T13:15:26.437Z,65.15
2022-10-02T13:18:43.516Z,65.49
2022-10-02T13:21:59.008Z,65.24
2022-10-02T13:25:01.477Z,65.20
2022-10-02T13:27:53.698Z,65.50
2022-10-02T13:31:11.618Z,64.83
2022-10-02T13:34:18.782Z,64.82
2022-10-02T13:37:04.807Z,64.97
2022-10-02T13:40:18.576Z,64.79
2022-10-02T13:43:06.155Z,64.85
2022-10-02T13:46:04.327Z,64.59
2022-10-02T13:49:13.720Z,64.63
2022-10-02T13:52:26.512Z,64.63
2022-10-02T13:55:26.966Z,64.43
2022-10-02T13:58:23.617Z,64.90
2022-10-02T14:01:36.036Z,64.56
2022-10-02T14:04:46.176Z,64.67
2022-10-02T14:07:31.956Z,64.20
2022-10-02T14:10:24.067Z,64.47
2022-10-02T14:13:28.841Z,64.45
2022-10-02T14:16:32.596Z,64.40
2022-10-02T14:19:53.005Z,64.21
2022-10-02T14:23:16.236Z,64.26
2022-10-02T14:26:35.758Z,64.71
2022-10-02T14:29:38.608Z,64.74
2022-10-02T14:32:58.742Z,64.64
2022-10-02T14:35:47.381Z,64.47
2022-10-02T14:38:54.734Z,64.53
2022-10-02T14:41:59.127Z,64.72
2022-10-02T14:45:10.515Z,64.69
2022-10-02T14:48:09.919Z,64.58
2022-10-02T14:51:20.679Z,64.49
2022-10-02T14:54:20.822Z,64.10
2022-10-02T14:57:20.342Z,64.40
2022-10-02T15:00:15.225Z,64.43
2022-10-02T15:03:33.862Z,63.88
2022-10-02T15:06:31.599Z,64.03
2022-10-02T15:09:27.516Z,64.59
2022-10-02T15:12:19.641Z,64.41
2022-10-02T15:15:17.464Z,64.61
2022-10-02T15:18:42.221Z,64.68
2022-10-02T15:24:34.121Z,65.14
2022-10-02T15:27:19.750Z,64.81
2022-10-02T15:30:19.707Z,64.78
2022-10-02T15:33:46.225Z,64.78
2022-10-02T15:36:50.711Z,64.84
2022-10-02T15:40:06.076Z,65.14
2022-10-02T15:42:58.651Z,64.83
2022-10-02T15:46:12.335Z,64.69
2022-10-02T15:49:27.142Z,64.78
2022-10-02T15:52:15.455Z,64.58
2022-10-02T15:55:10.985Z,64.50
2022-10-02T15:58:24.440Z,64.47
2022-10-02T16:01:12.857Z,64.52
2022-10-02T16:04:18.635Z,64.51
2022-10-02T16:07:38.036Z,64.63
2022-10-02T16:10:41.669Z,64.63
2022-10-02T16:13:30.101Z,64.68
2022-10-02T16:16:52.916Z,64.84
2022-10-02T16:19:50.436Z,65.08
2022-10-02T16:23:01.221Z,65.32
2022-10-02T16:25:46.636Z,65.60
2022-10-02T16:28:48.772Z,65.99
2022-10-02T16:31:43.759Z,65.77
2022-10-02T16:34:57.077Z,68.27
2022-10-02T16:38:13.925Z,66.72
2022-10-02T16:41:15.540Z,66.62
2022-10-02T16:47:28.565Z,67.29
2022-10-02T16:50:32.005Z,67.05
2022-10-02T16:53:29.893Z,68.27
2022-10-02T16:56:32.244Z,67.39
2022-10-02T16:59:24.083Z,67.15
2022-10-02T17:02:22.725Z,67.02
2022-10-02T17:05:11.096Z,67.13
2022-10-02T17:08:05.520Z,67.20
2022-10-02T17:11:23.286Z,67.50
2022-10-02T17:14:55.017Z,67.22
2022-10-02T17:17:43.106Z,67.23
2022-10-02T17:20:34.007Z,67.24
2022-10-02T17:23:25.380Z,67.05
2022-10-02T17:26:22.678Z,66.95
2022-10-02T17:29:13.416Z,67.99
2022-10-02T17:32:01.780Z,68.43
2022-10-02T17:34:50.489Z,69.42
2022-10-02T17:37:53.507Z,69.32
2022-10-02T17:40:46.104Z,69.67
2022-10-02T17:43:50.728Z,69.71
2022-10-02T17:46:42.374Z,69.55
2022-10-02T17:49:49.103Z,69.54
2022-10-02T17:53:02.856Z,69.58
2022-10-02T17:56:28.576Z,68.92
2022-10-02T17:59:30.705Z,69.35
2022-10-02T18:02:53.908Z,69.14
2022-10-02T18:05:46.512Z,69.02
2022-10-02T18:08:38.058Z,68.61
2022-10-02T18:11:46.016Z,68.84
2022-10-02T18:14:52.620Z,68.96
2022-10-02T18:17:51.630Z,68.61
2022-10-02T18:21:14.398Z,68.55
2022-10-02T18:24:09.757Z,68.46
2022-10-02T18:27:18.568Z,68.26
2022-10-02T18:30:20.788Z,68.38
2022-10-02T18:33:42.747Z,68.28
2022-10-02T18:36:56.374Z,68.06
2022-10-02T18:40:20.008Z,67.78
2022-10-02T18:43:12.189Z,67.81
2022-10-02T18:46:33.711Z,67.31
2022-10-02T18:49:39.962Z,66.56
2022-10-02T18:53:03.872Z,66.86
2022-10-02T18:56:09.350Z,67.22
2022-10-02T18:59:19.899Z,67.17
2022-10-02T19:02:27.278Z,66.91
2022-10-02T19:05:35.678Z,66.98
2022-10-02T19:08:50.487Z,66.62
2022-10-02T19:11:47.754Z,66.55
2022-10-02T19:14:42.330Z,65.63
2022-10-02T19:17:30.871Z,66.05
2022-10-02T19:20:34.756Z,65.99
2022-10-02T19:23:38.784Z,65.62
2022-10-02T19:26:40.658Z,65.48
2022-10-02T19:29:57.974Z,65.20
2022-10-02T19:32:43.392Z,65.10
2022-10-02T19:35:40.679Z,64.92
2022-10-02T19:38:39.411Z,64.77
2022-10-02T19:41:25.671Z,64.89
2022-10-02T19:44:25.632Z,64.74
2022-10-02T19:47:45.798Z,64.82
2022-10-02T19:50:49.161Z,64.84
2022-10-02T19:53:45.186Z,64.83
2022-10-02T19:56:41.168Z,65.16
2022-10-02T19:59:41.920Z,64.66
2022-10-02T20:02:38.748Z,64.69
2022-10-02T20:05:31.541Z,64.58
2022-10-02T20:08:20.005Z,64.50
2022-10-02T20:11:14.926Z,65.04
2022-10-02T20:14:10.591Z,66.06
2022-10-02T20:17:11.127Z,66.58
2022-10-02T20:20:01.567Z,66.68
2022-10-02T20:23:01.787Z,66.71
2022-10-02T20:25:58.446Z,66.69
2022-10-02T20:29:10.031Z,66.49
2022-10-02T20:32:02.154Z,66.64
2022-10-02T20:34:53.665Z,66.42
2022-10-02T20:37:40.818Z,66.49
2022-10-02T20:40:30.324Z,66.62
2022-10-02T20:43:34.374Z,66.54
2022-10-02T20:46:32.050Z,66.57
2022-10-02T20:49:55.386Z,66.54
2022-10-02T20:52:56.039Z,66.48
2022-10-02T20:55:45.945Z,66.56
2022-10-02T20:59:03.638Z,66.43
2022-10-02T21:02:19.817Z,66.31
2022-10-02T21:05:07.979Z,66.37
2022-10-02T21:08:18.745Z,66.53
2022-10-02T21:11:13.475Z,66.16
2022-10-02T21:14:09.384Z,66.19
2022-10-02T21:17:13.816Z,66.41
2022-10-02T21:20:08.275Z,66.69
2022-10-02T21:23:15.093Z,66.67
2022-10-02T21:26:38.297Z,66.68
2022-10-02T21:29:44.001Z,66.54
2022-10-02T21:32:38.506Z,66.85
2022-10-02T21:35:54.503Z,66.50
2022-10-02T21:38:50.931Z,66.55
2022-10-02T21:42:00.739Z,66.53
2022-10-02T21:45:29.870Z,66.31
2022-10-02T21:49:01.615Z,66.56
2022-10-02T21:52:23.854Z,66.55
2022-10-02T21:55:41.353Z,66.66
2022-10-02T21:58:36.016Z,66.44
2022-10-02T22:01:38.809Z,66.47
2022-10-02T22:04:53.589Z,66.19
2022-10-02T22:08:14.746Z,66.37
2022-10-02T22:11:42.006Z,66.37
2022-10-02T22:14:46.910Z,66.42
2022-10-02T22:18:25.165Z,66.29
2022-10-02T22:21:20.174Z,66.23
2022-10-02T22:24:24.016Z,66.13
2022-10-02T22:27:21.756Z,66.05
2022-10-02T22:30:23.175Z,65.61
2022-10-02T22:33:13.960Z,65.14
2022-10-02T22:36:34.955Z,65.35
2022-10-02T22:39:57.723Z,65.47
2022-10-02T22:42:52.027Z,65.25
2022-10-02T22:45:48.502Z,65.07
2022-10-02T22:49:01.050Z,65.21
2022-10-02T22:51:54.158Z,65.18
2022-10-02T22:55:05.476Z,65.39
2022-10-02T22:58:02.527Z,65.30
2022-10-02T23:01:00.008Z,65.27
2022-10-02T23:03:58.665Z,65.31
2022-10-02T23:07:12.582Z,65.31
2022-10-02T23:10:03.524Z,65.23
2022-10-02T23:13:03.969Z,65.33
2022-10-02T23:16:06.068Z,65.38
2022-10-02T23:18:54.362Z,65.33
2022-10-02T23:21:47.967Z,65.40
2022-10-02T23:24:43.557Z,65.54
2022-10-02T23:27:46.184Z,65.46
2022-10-02T23:30:36.369Z,65.53
2022-10-02T23:33:41.086Z,65.62
2022-10-02T23:36:37.001Z,65.52
2022-10-02T23:39:49.422Z,65.50
2022-10-02T23:42:59.097Z,65.41
2022-10-02T23:45:51.809Z,65.10
2022-10-02T23:48:38.614Z,65.61
2022-10-02T23:51:41.135Z,65.63
2022-10-02T23:54:44.645Z,65.72
2022-10-02T23:57:33.124Z,65.73
